KLM115 EHAM-EDDN
Flight info
| Callsign | KLM115 |
|---|---|
| Flight time | 0h 59m |
| Altitude | 35000 |
| Route | EDUPO Z739 MISGO DCT TIVUN DCT TESGA Z719 ETOLU Z723 RITUP/N0419F230 Z723 KOMIB T193 ERTES T194 DODAS DODAS1V |
| Aircraft | B738/M-SDE2E3FGHIRWXY/LB1 |
Departure
| Time | 2026-05-05 21:05 |
|---|---|
| Airport | Amsterdam Airport Schiphol (EHAM) |
Arrival
| Time | 2026-05-05 22:05 |
|---|---|
| Airport | Nuremberg Airport (EDDN) |
| Time | Latitude | Longitude | Altitude | Speed | Heading |
|---|---|---|---|---|---|
| 2026-05-05 20:37 | 52.30901 | 4.77175 | -2 ft | 0 kts | 2° |
| 2026-05-05 20:49 | 52.30899 | 4.77175 | -2 ft | 2 kts | 2° |
| 2026-05-05 20:49 | 52.30874 | 4.77177 | -2 ft | 4 kts | 356° |
| 2026-05-05 20:50 | 52.30855 | 4.77173 | -2 ft | 3 kts | 67° |
| 2026-05-05 20:50 | 52.30849 | 4.77142 | -2 ft | 1 kts | 77° |
| 2026-05-05 20:50 | 52.30849 | 4.77141 | -2 ft | 1 kts | 77° |
| 2026-05-05 20:52 | 52.30849 | 4.77142 | -2 ft | 0 kts | 77° |
| 2026-05-05 20:52 | 52.30848 | 4.77157 | -2 ft | 3 kts | 96° |
| 2026-05-05 20:53 | 52.30845 | 4.77207 | -2 ft | 6 kts | 95° |
| 2026-05-05 20:53 | 52.30841 | 4.77302 | -2 ft | 10 kts | 92° |
| 2026-05-05 20:53 | 52.30841 | 4.77435 | -2 ft | 13 kts | 70° |
| 2026-05-05 20:53 | 52.30928 | 4.77477 | -2 ft | 15 kts | 4° |
| 2026-05-05 20:54 | 52.31037 | 4.77487 | -2 ft | 17 kts | 3° |
| 2026-05-05 20:54 | 52.31164 | 4.77498 | -2 ft | 19 kts | 3° |
| 2026-05-05 20:54 | 52.31281 | 4.77493 | -2 ft | 17 kts | 341° |
| 2026-05-05 20:54 | 52.31372 | 4.77361 | -2 ft | 19 kts | 310° |
| 2026-05-05 20:55 | 52.31460 | 4.77192 | -2 ft | 20 kts | 307° |
| 2026-05-05 20:55 | 52.31480 | 4.76958 | -2 ft | 23 kts | 269° |
| 2026-05-05 20:55 | 52.31470 | 4.76687 | -2 ft | 25 kts | 266° |
| 2026-05-05 20:55 | 52.31460 | 4.76387 | -2 ft | 28 kts | 265° |
| 2026-05-05 20:56 | 52.31450 | 4.76063 | -2 ft | 29 kts | 266° |
| 2026-05-05 20:56 | 52.31438 | 4.75724 | -2 ft | 31 kts | 264° |
| 2026-05-05 20:56 | 52.31425 | 4.75402 | -2 ft | 24 kts | 266° |
| 2026-05-05 20:56 | 52.31414 | 4.75111 | -2 ft | 27 kts | 267° |
| 2026-05-05 20:57 | 52.31405 | 4.74791 | -2 ft | 29 kts | 267° |
| 2026-05-05 20:57 | 52.31394 | 4.74455 | -2 ft | 30 kts | 267° |
| 2026-05-05 20:57 | 52.31457 | 4.74287 | -2 ft | 19 kts | 4° |
| 2026-05-05 20:57 | 52.31598 | 4.74303 | -2 ft | 21 kts | 4° |
| 2026-05-05 20:58 | 52.31750 | 4.74318 | -2 ft | 23 kts | 1° |
| 2026-05-05 20:58 | 52.31913 | 4.74332 | -2 ft | 24 kts | 3° |
| 2026-05-05 20:58 | 52.32029 | 4.74250 | -2 ft | 19 kts | 276° |
| 2026-05-05 20:58 | 52.32032 | 4.74168 | -2 ft | 0 kts | 273° |
| 2026-05-05 20:59 | 52.32033 | 4.74165 | -2 ft | 2 kts | 273° |
| 2026-05-05 20:59 | 52.32034 | 4.74124 | -2 ft | 6 kts | 274° |
| 2026-05-05 20:59 | 52.32037 | 4.74029 | -3 ft | 11 kts | 273° |
| 2026-05-05 21:00 | 52.32043 | 4.73879 | -2 ft | 14 kts | 274° |
| 2026-05-05 21:00 | 52.32048 | 4.73704 | -2 ft | 17 kts | 273° |
| 2026-05-05 21:00 | 52.32056 | 4.73498 | -2 ft | 20 kts | 275° |
| 2026-05-05 21:00 | 52.32126 | 4.73303 | -2 ft | 22 kts | 320° |
| 2026-05-05 21:01 | 52.32243 | 4.73138 | -2 ft | 22 kts | 320° |
| 2026-05-05 21:01 | 52.32360 | 4.72976 | -2 ft | 22 kts | 318° |
| 2026-05-05 21:01 | 52.32478 | 4.72809 | -2 ft | 23 kts | 320° |
| 2026-05-05 21:01 | 52.32604 | 4.72629 | -2 ft | 25 kts | 319° |
| 2026-05-05 21:02 | 52.32730 | 4.72425 | -2 ft | 26 kts | 311° |
| 2026-05-05 21:02 | 52.32851 | 4.72203 | -2 ft | 26 kts | 311° |
| 2026-05-05 21:02 | 52.32965 | 4.71992 | -2 ft | 24 kts | 312° |
| 2026-05-05 21:02 | 52.33071 | 4.71792 | -2 ft | 23 kts | 313° |
| 2026-05-05 21:03 | 52.33149 | 4.71576 | -2 ft | 23 kts | 267° |
| 2026-05-05 21:03 | 52.33041 | 4.71370 | -2 ft | 26 kts | 221° |
| 2026-05-05 21:03 | 52.32902 | 4.71170 | -2 ft | 25 kts | 221° |
| 2026-05-05 21:03 | 52.32879 | 4.70934 | -3 ft | 22 kts | 313° |
| 2026-05-05 21:04 | 52.32993 | 4.70905 | -4 ft | 18 kts | 3° |
| 2026-05-05 21:04 | 52.33121 | 4.70917 | -5 ft | 19 kts | 3° |
| 2026-05-05 21:04 | 52.33461 | 4.70947 | -3 ft | 83 kts | 2° |
| 2026-05-05 21:04 | 52.34255 | 4.71021 | -4 ft | 143 kts | 3° |
| 2026-05-05 21:05 | 52.35370 | 4.71068 | 372 ft | 165 kts | 2° |
| 2026-05-05 21:05 | 52.36473 | 4.71167 | 1470 ft | 147 kts | 6° |
| 2026-05-05 21:05 | 52.37466 | 4.71245 | 2297 ft | 148 kts | 7° |
| 2026-05-05 21:05 | 52.38601 | 4.71363 | 2589 ft | 176 kts | 7° |
| 2026-05-05 21:06 | 52.39883 | 4.71497 | 2862 ft | 197 kts | 6° |
| 2026-05-05 21:06 | 52.41348 | 4.71635 | 3123 ft | 215 kts | 6° |
| 2026-05-05 21:06 | 52.42757 | 4.72398 | 3619 ft | 220 kts | 30° |
| 2026-05-05 21:06 | 52.44169 | 4.73704 | 3895 ft | 244 kts | 28° |
| 2026-05-05 21:07 | 52.45671 | 4.75046 | 4664 ft | 246 kts | 28° |
| 2026-05-05 21:07 | 52.47108 | 4.76590 | 5382 ft | 252 kts | 44° |
| 2026-05-05 21:07 | 52.48017 | 4.79074 | 6106 ft | 259 kts | 69° |
| 2026-05-05 21:07 | 52.48312 | 4.82038 | 6891 ft | 264 kts | 84° |
| 2026-05-05 21:08 | 52.48450 | 4.85075 | 7499 ft | 272 kts | 84° |
| 2026-05-05 21:08 | 52.48583 | 4.88196 | 8174 ft | 277 kts | 88° |
| 2026-05-05 21:08 | 52.48178 | 4.91279 | 8760 ft | 289 kts | 116° |
| 2026-05-05 21:08 | 52.46885 | 4.93796 | 9532 ft | 291 kts | 141° |
| 2026-05-05 21:09 | 52.45241 | 4.95758 | 10214 ft | 296 kts | 145° |
| 2026-05-05 21:09 | 52.43491 | 4.97739 | 10448 ft | 316 kts | 145° |
| 2026-05-05 21:09 | 52.41618 | 4.99852 | 10611 ft | 338 kts | 145° |
| 2026-05-05 21:09 | 52.39636 | 5.02110 | 10779 ft | 357 kts | 144° |
| 2026-05-05 21:10 | 52.37547 | 5.04513 | 10922 ft | 376 kts | 144° |
| 2026-05-05 21:10 | 52.35371 | 5.07025 | 11252 ft | 387 kts | 144° |
| 2026-05-05 21:10 | 52.33190 | 5.09619 | 11855 ft | 389 kts | 140° |
| 2026-05-05 21:10 | 52.31271 | 5.12749 | 12461 ft | 392 kts | 131° |
| 2026-05-05 21:11 | 52.29501 | 5.16181 | 13025 ft | 397 kts | 129° |
| 2026-05-05 21:11 | 52.27711 | 5.19639 | 13633 ft | 400 kts | 130° |
| 2026-05-05 21:11 | 52.25866 | 5.23071 | 14218 ft | 404 kts | 131° |
| 2026-05-05 21:11 | 52.23995 | 5.26509 | 14803 ft | 407 kts | 130° |
| 2026-05-05 21:12 | 52.22271 | 5.30180 | 15488 ft | 407 kts | 125° |
| 2026-05-05 21:12 | 52.20657 | 5.33990 | 16114 ft | 410 kts | 124° |
| 2026-05-05 21:12 | 52.19051 | 5.37852 | 16696 ft | 413 kts | 124° |
| 2026-05-05 21:12 | 52.17419 | 5.41730 | 17280 ft | 416 kts | 124° |
| 2026-05-05 21:13 | 52.15764 | 5.45589 | 18019 ft | 414 kts | 125° |
| 2026-05-05 21:13 | 52.14116 | 5.49386 | 18837 ft | 408 kts | 126° |
| 2026-05-05 21:13 | 52.12461 | 5.53170 | 19242 ft | 414 kts | 126° |
| 2026-05-05 21:13 | 52.10782 | 5.56998 | 19755 ft | 416 kts | 126° |
| 2026-05-05 21:14 | 52.09088 | 5.60861 | 20075 ft | 423 kts | 126° |
| 2026-05-05 21:14 | 52.07371 | 5.64770 | 20526 ft | 426 kts | 127° |
| 2026-05-05 21:14 | 52.05624 | 5.68687 | 20898 ft | 430 kts | 129° |
| 2026-05-05 21:14 | 52.03700 | 5.72417 | 21313 ft | 432 kts | 133° |
| 2026-05-05 21:15 | 52.01688 | 5.76059 | 21789 ft | 434 kts | 133° |
| 2026-05-05 21:15 | 51.99671 | 5.79733 | 22132 ft | 439 kts | 133° |
| 2026-05-05 21:15 | 51.97655 | 5.83472 | 22548 ft | 441 kts | 132° |
| 2026-05-05 21:15 | 51.95639 | 5.87240 | 22924 ft | 444 kts | 133° |
| 2026-05-05 21:16 | 51.93634 | 5.90978 | 23330 ft | 446 kts | 133° |
| 2026-05-05 21:16 | 51.91567 | 5.94825 | 23702 ft | 448 kts | 133° |
| 2026-05-05 21:16 | 51.89544 | 5.98587 | 24040 ft | 449 kts | 133° |
| 2026-05-05 21:16 | 51.87486 | 6.02405 | 24404 ft | 450 kts | 133° |
| 2026-05-05 21:17 | 51.85422 | 6.06226 | 24744 ft | 452 kts | 133° |
| 2026-05-05 21:17 | 51.83348 | 6.10038 | 25065 ft | 453 kts | 133° |
| 2026-05-05 21:17 | 51.81251 | 6.13871 | 25381 ft | 455 kts | 133° |
| 2026-05-05 21:17 | 51.79153 | 6.17703 | 25694 ft | 456 kts | 133° |
| 2026-05-05 21:18 | 51.77047 | 6.21544 | 25999 ft | 458 kts | 133° |
| 2026-05-05 21:18 | 51.74937 | 6.25396 | 26302 ft | 459 kts | 133° |
| 2026-05-05 21:18 | 51.72821 | 6.29257 | 26600 ft | 460 kts | 133° |
| 2026-05-05 21:18 | 51.70706 | 6.33118 | 26996 ft | 458 kts | 133° |
| 2026-05-05 21:19 | 51.68606 | 6.36946 | 27553 ft | 453 kts | 133° |
| 2026-05-05 21:19 | 51.66533 | 6.40720 | 28079 ft | 449 kts | 133° |
| 2026-05-05 21:19 | 51.64466 | 6.44471 | 28526 ft | 447 kts | 133° |
| 2026-05-05 21:19 | 51.62402 | 6.48212 | 28918 ft | 446 kts | 133° |
| 2026-05-05 21:20 | 51.60339 | 6.51943 | 29246 ft | 447 kts | 133° |
| 2026-05-05 21:20 | 51.58275 | 6.55673 | 29643 ft | 445 kts | 133° |
| 2026-05-05 21:20 | 51.56221 | 6.59382 | 30080 ft | 442 kts | 133° |
| 2026-05-05 21:20 | 51.54180 | 6.63062 | 30500 ft | 439 kts | 133° |
| 2026-05-05 21:21 | 51.52148 | 6.66721 | 30880 ft | 437 kts | 133° |
| 2026-05-05 21:21 | 51.50807 | 6.69132 | 31115 ft | 436 kts | 133° |
| 2026-05-05 21:21 | 51.48790 | 6.72756 | 31460 ft | 435 kts | 133° |
| 2026-05-05 21:21 | 51.46779 | 6.76365 | 31826 ft | 432 kts | 133° |
| 2026-05-05 21:22 | 51.44780 | 6.79948 | 32225 ft | 430 kts | 133° |
| 2026-05-05 21:22 | 51.42792 | 6.83504 | 32576 ft | 428 kts | 134° |
| 2026-05-05 21:22 | 51.40811 | 6.87058 | 32890 ft | 427 kts | 133° |
| 2026-05-05 21:22 | 51.38440 | 6.92104 | 33302 ft | 428 kts | 127° |
| 2026-05-05 21:23 | 51.36775 | 6.96037 | 33651 ft | 426 kts | 126° |
| 2026-05-05 21:23 | 51.35667 | 6.98691 | 33895 ft | 425 kts | 126° |
| 2026-05-05 21:23 | 51.34027 | 7.02620 | 34092 ft | 425 kts | 126° |
| 2026-05-05 21:23 | 51.32367 | 7.06569 | 34197 ft | 428 kts | 126° |
| 2026-05-05 21:24 | 51.30694 | 7.10514 | 34344 ft | 430 kts | 126° |
| 2026-05-05 21:24 | 51.29012 | 7.14457 | 34539 ft | 430 kts | 126° |
| 2026-05-05 21:24 | 51.27322 | 7.18399 | 34699 ft | 431 kts | 126° |
| 2026-05-05 21:24 | 51.25622 | 7.22349 | 34838 ft | 432 kts | 127° |
| 2026-05-05 21:25 | 51.22200 | 7.30277 | 34836 ft | 433 kts | 127° |
| 2026-05-05 21:25 | 51.18789 | 7.38159 | 34829 ft | 431 kts | 127° |
| 2026-05-05 21:26 | 51.15388 | 7.45992 | 34824 ft | 429 kts | 127° |
| 2026-05-05 21:26 | 51.11991 | 7.53793 | 34826 ft | 428 kts | 127° |
| 2026-05-05 21:27 | 51.08599 | 7.61561 | 34814 ft | 428 kts | 127° |
| 2026-05-05 21:27 | 51.05197 | 7.69327 | 34819 ft | 428 kts | 127° |
| 2026-05-05 21:28 | 51.01780 | 7.77106 | 34822 ft | 430 kts | 127° |
| 2026-05-05 21:28 | 50.98349 | 7.84897 | 34816 ft | 432 kts | 127° |
| 2026-05-05 21:29 | 50.94894 | 7.92718 | 34812 ft | 433 kts | 127° |
| 2026-05-05 21:29 | 50.91100 | 8.00103 | 34800 ft | 432 kts | 140° |
| 2026-05-05 21:30 | 50.86536 | 8.06181 | 34807 ft | 432 kts | 141° |
| 2026-05-05 21:30 | 50.81926 | 8.12271 | 34811 ft | 432 kts | 141° |
| 2026-05-05 21:31 | 50.77331 | 8.18390 | 34804 ft | 432 kts | 141° |
| 2026-05-05 21:31 | 50.72738 | 8.24523 | 34801 ft | 432 kts | 141° |
| 2026-05-05 21:32 | 50.68147 | 8.30642 | 34801 ft | 432 kts | 141° |
| 2026-05-05 21:32 | 50.63557 | 8.36743 | 34805 ft | 432 kts | 141° |
| 2026-05-05 21:33 | 50.58960 | 8.42835 | 34794 ft | 431 kts | 141° |
| 2026-05-05 21:33 | 50.54375 | 8.48895 | 34803 ft | 431 kts | 141° |
| 2026-05-05 21:34 | 50.49783 | 8.54951 | 34821 ft | 431 kts | 141° |
| 2026-05-05 21:34 | 50.45185 | 8.60998 | 34820 ft | 431 kts | 141° |
| 2026-05-05 21:35 | 50.40626 | 8.67132 | 34817 ft | 432 kts | 140° |
| 2026-05-05 21:35 | 50.36106 | 8.73341 | 34817 ft | 432 kts | 140° |
| 2026-05-05 21:36 | 50.31568 | 8.79520 | 34817 ft | 432 kts | 140° |
| 2026-05-05 21:36 | 50.29460 | 8.82884 | 34811 ft | 434 kts | 129° |
| 2026-05-05 21:36 | 50.27763 | 8.86774 | 34828 ft | 436 kts | 122° |
| 2026-05-05 21:37 | 50.25316 | 8.95494 | 34826 ft | 440 kts | 111° |
| 2026-05-05 21:37 | 50.23391 | 9.04595 | 34820 ft | 442 kts | 110° |
| 2026-05-05 21:38 | 50.21450 | 9.13715 | 34821 ft | 443 kts | 111° |
| 2026-05-05 21:38 | 50.19449 | 9.22811 | 34806 ft | 443 kts | 111° |
| 2026-05-05 21:39 | 50.18112 | 9.32205 | 34818 ft | 447 kts | 96° |
| 2026-05-05 21:39 | 50.18244 | 9.41946 | 34822 ft | 450 kts | 91° |
| 2026-05-05 21:40 | 50.18423 | 9.51697 | 34824 ft | 450 kts | 92° |
| 2026-05-05 21:40 | 50.18527 | 9.61448 | 34825 ft | 450 kts | 92° |
| 2026-05-05 21:41 | 50.18623 | 9.71204 | 34821 ft | 450 kts | 92° |
| 2026-05-05 21:41 | 50.18716 | 9.80896 | 34821 ft | 450 kts | 92° |
| 2026-05-05 21:42 | 50.18804 | 9.90646 | 34828 ft | 450 kts | 92° |
| 2026-05-05 21:42 | 50.18484 | 10.00333 | 34818 ft | 444 kts | 108° |
| 2026-05-05 21:43 | 50.15854 | 10.08869 | 34819 ft | 436 kts | 131° |
| 2026-05-05 21:43 | 50.11861 | 10.15976 | 34811 ft | 436 kts | 133° |
| 2026-05-05 21:44 | 50.09864 | 10.19577 | 34326 ft | 443 kts | 132° |
| 2026-05-05 21:44 | 50.07916 | 10.23260 | 33786 ft | 439 kts | 127° |
| 2026-05-05 21:44 | 50.06304 | 10.27270 | 33315 ft | 434 kts | 118° |
| 2026-05-05 21:44 | 50.05010 | 10.31509 | 32554 ft | 435 kts | 116° |
| 2026-05-05 21:45 | 50.03746 | 10.35776 | 31903 ft | 434 kts | 116° |
| 2026-05-05 21:45 | 50.02478 | 10.40031 | 31155 ft | 433 kts | 116° |
| 2026-05-05 21:45 | 50.01195 | 10.44275 | 30408 ft | 434 kts | 116° |
| 2026-05-05 21:45 | 49.99887 | 10.48558 | 29606 ft | 444 kts | 116° |
| 2026-05-05 21:46 | 49.98545 | 10.52923 | 28646 ft | 451 kts | 117° |
| 2026-05-05 21:46 | 49.97149 | 10.57279 | 27756 ft | 449 kts | 122° |
| 2026-05-05 21:46 | 49.95222 | 10.61057 | 26870 ft | 446 kts | 138° |
| 2026-05-05 21:46 | 49.92770 | 10.63985 | 25819 ft | 447 kts | 151° |
| 2026-05-05 21:47 | 49.89960 | 10.65989 | 25095 ft | 447 kts | 162° |
| 2026-05-05 21:47 | 49.86979 | 10.67445 | 24416 ft | 451 kts | 163° |
| 2026-05-05 21:47 | 49.84006 | 10.68916 | 23721 ft | 446 kts | 162° |
| 2026-05-05 21:47 | 49.81080 | 10.70437 | 22977 ft | 442 kts | 161° |
| 2026-05-05 21:48 | 49.78227 | 10.72160 | 22200 ft | 438 kts | 156° |
| 2026-05-05 21:48 | 49.75710 | 10.74743 | 21507 ft | 436 kts | 137° |
| 2026-05-05 21:48 | 49.73838 | 10.78407 | 20865 ft | 434 kts | 123° |
| 2026-05-05 21:48 | 49.72545 | 10.82620 | 20229 ft | 435 kts | 109° |
| 2026-05-05 21:49 | 49.71953 | 10.87162 | 19998 ft | 428 kts | 100° |
| 2026-05-05 21:49 | 49.71576 | 10.91709 | 19882 ft | 424 kts | 99° |
| 2026-05-05 21:49 | 49.71198 | 10.96132 | 19837 ft | 407 kts | 100° |
| 2026-05-05 21:49 | 49.70806 | 11.00371 | 19822 ft | 390 kts | 101° |
| 2026-05-05 21:50 | 49.70412 | 11.04425 | 19825 ft | 374 kts | 101° |
| 2026-05-05 21:50 | 49.70030 | 11.08315 | 19818 ft | 359 kts | 101° |
| 2026-05-05 21:50 | 49.69615 | 11.12041 | 19180 ft | 357 kts | 108° |
| 2026-05-05 21:50 | 49.68506 | 11.15482 | 17999 ft | 364 kts | 132° |
| 2026-05-05 21:51 | 49.66576 | 11.18028 | 16706 ft | 369 kts | 154° |
| 2026-05-05 21:51 | 49.64152 | 11.19326 | 15488 ft | 372 kts | 174° |
| 2026-05-05 21:51 | 49.61580 | 11.19203 | 14313 ft | 372 kts | 196° |
| 2026-05-05 21:51 | 49.59294 | 11.17422 | 13130 ft | 372 kts | 222° |
| 2026-05-05 21:52 | 49.57382 | 11.10392 | 11282 ft | 366 kts | 274° |
| 2026-05-05 21:52 | 49.58199 | 11.06769 | 10899 ft | 357 kts | 302° |
| 2026-05-05 21:52 | 49.59887 | 11.04081 | 10816 ft | 341 kts | 311° |
| 2026-05-05 21:53 | 49.61104 | 11.01148 | 10639 ft | 316 kts | 283° |
| 2026-05-05 21:53 | 49.61441 | 10.97864 | 10570 ft | 311 kts | 270° |
| 2026-05-05 21:53 | 49.61509 | 10.94440 | 10449 ft | 322 kts | 270° |
| 2026-05-05 21:53 | 49.61673 | 10.91038 | 10287 ft | 313 kts | 273° |
| 2026-05-05 21:54 | 49.61932 | 10.87760 | 10143 ft | 302 kts | 275° |
| 2026-05-05 21:54 | 49.62222 | 10.84608 | 10015 ft | 292 kts | 275° |
| 2026-05-05 21:54 | 49.62514 | 10.81560 | 9896 ft | 282 kts | 276° |
| 2026-05-05 21:54 | 49.62798 | 10.78610 | 9655 ft | 277 kts | 275° |
| 2026-05-05 21:55 | 49.63077 | 10.75682 | 9353 ft | 274 kts | 276° |
| 2026-05-05 21:55 | 49.63352 | 10.72786 | 9057 ft | 272 kts | 276° |
| 2026-05-05 21:55 | 49.63625 | 10.69913 | 8743 ft | 270 kts | 276° |
| 2026-05-05 21:55 | 49.63894 | 10.67067 | 8453 ft | 267 kts | 276° |
| 2026-05-05 21:56 | 49.64160 | 10.64236 | 8160 ft | 265 kts | 276° |
| 2026-05-05 21:56 | 49.64424 | 10.61431 | 7860 ft | 263 kts | 276° |
| 2026-05-05 21:56 | 49.64646 | 10.58641 | 7555 ft | 261 kts | 268° |
| 2026-05-05 21:56 | 49.64238 | 10.55963 | 7253 ft | 258 kts | 243° |
| 2026-05-05 21:57 | 49.63123 | 10.53817 | 6949 ft | 259 kts | 222° |
| 2026-05-05 21:57 | 49.61567 | 10.52399 | 6623 ft | 264 kts | 202° |
| 2026-05-05 21:57 | 49.59763 | 10.51827 | 6424 ft | 262 kts | 192° |
| 2026-05-05 21:57 | 49.57952 | 10.51723 | 6251 ft | 263 kts | 173° |
| 2026-05-05 21:58 | 49.56294 | 10.52891 | 6128 ft | 265 kts | 145° |
| 2026-05-05 21:58 | 49.55136 | 10.55073 | 6006 ft | 265 kts | 119° |
| 2026-05-05 21:58 | 49.54626 | 10.57762 | 5904 ft | 260 kts | 101° |
| 2026-05-05 21:58 | 49.54372 | 10.60484 | 5789 ft | 254 kts | 99° |
| 2026-05-05 21:59 | 49.54145 | 10.63143 | 5646 ft | 248 kts | 99° |
| 2026-05-05 21:59 | 49.53951 | 10.65775 | 5427 ft | 247 kts | 97° |
| 2026-05-05 21:59 | 49.53786 | 10.68288 | 5400 ft | 233 kts | 98° |
| 2026-05-05 21:59 | 49.53571 | 10.70738 | 5154 ft | 228 kts | 100° |
| 2026-05-05 22:00 | 49.53338 | 10.73091 | 5018 ft | 216 kts | 101° |
| 2026-05-05 22:00 | 49.53114 | 10.75308 | 4941 ft | 206 kts | 101° |
| 2026-05-05 22:00 | 49.52890 | 10.77501 | 4698 ft | 206 kts | 101° |
| 2026-05-05 22:00 | 49.52675 | 10.79623 | 4450 ft | 195 kts | 101° |
| 2026-05-05 22:01 | 49.52472 | 10.81646 | 4175 ft | 188 kts | 101° |
| 2026-05-05 22:01 | 49.52273 | 10.83613 | 3941 ft | 186 kts | 101° |
| 2026-05-05 22:01 | 49.52078 | 10.85555 | 3694 ft | 185 kts | 101° |
| 2026-05-05 22:01 | 49.51881 | 10.87518 | 3462 ft | 186 kts | 101° |
| 2026-05-05 22:02 | 49.51685 | 10.89482 | 3203 ft | 185 kts | 101° |
| 2026-05-05 22:02 | 49.51490 | 10.91430 | 2956 ft | 183 kts | 101° |
| 2026-05-05 22:02 | 49.51299 | 10.93350 | 2719 ft | 181 kts | 101° |
| 2026-05-05 22:02 | 49.51109 | 10.95257 | 2475 ft | 180 kts | 101° |
| 2026-05-05 22:03 | 49.50921 | 10.97153 | 2229 ft | 178 kts | 101° |
| 2026-05-05 22:03 | 49.50738 | 10.98994 | 1953 ft | 171 kts | 100° |
| 2026-05-05 22:03 | 49.50566 | 11.00748 | 1708 ft | 161 kts | 100° |
| 2026-05-05 22:03 | 49.50403 | 11.02414 | 1487 ft | 154 kts | 99° |
| 2026-05-05 22:04 | 49.50241 | 11.04033 | 1299 ft | 154 kts | 100° |
| 2026-05-05 22:04 | 49.50084 | 11.05663 | 1094 ft | 153 kts | 99° |
| 2026-05-05 22:04 | 49.49926 | 11.07222 | 1025 ft | 133 kts | 98° |
| 2026-05-05 22:04 | 49.49820 | 11.08310 | 1028 ft | 72 kts | 98° |
| 2026-05-05 22:05 | 49.49684 | 11.08579 | 1030 ft | 30 kts | 209° |
| 2026-05-05 22:05 | 49.49609 | 11.08382 | 1030 ft | 21 kts | 219° |
| 2026-05-05 22:05 | 49.49476 | 11.08311 | 1030 ft | 14 kts | 188° |
| 2026-05-05 22:05 | 49.49466 | 11.08309 | 1029 ft | 0 kts | 188° |